createdAt,value
2019-03-28T00:01:12.775Z,15.97
2019-03-28T00:03:38.860Z,17.00
2019-03-28T00:06:04.890Z,16.70
2019-03-28T00:08:30.915Z,16.50
2019-03-28T00:10:57.023Z,17.27
2019-03-28T00:13:23.031Z,17.57
2019-03-28T00:15:49.047Z,16.43
2019-03-28T00:18:15.072Z,15.87
2019-03-28T00:20:41.111Z,16.50
2019-03-28T00:23:11.747Z,15.40
2019-03-28T00:25:38.202Z,16.20
2019-03-28T00:28:04.436Z,15.97
2019-03-28T00:30:30.467Z,16.70
2019-03-28T00:32:56.483Z,15.07
2019-03-28T00:35:22.525Z,15.90
2019-03-28T00:37:48.560Z,16.53
2019-03-28T00:40:14.587Z,15.90
2019-03-28T00:42:43.686Z,17.03
2019-03-28T00:45:10.068Z,16.43
2019-03-28T00:47:36.244Z,17.50
2019-03-28T00:50:04.259Z,16.93
2019-03-28T00:52:30.305Z,16.30
2019-03-28T00:54:56.332Z,18.23
2019-03-28T00:57:22.383Z,18.60
2019-03-28T00:59:49.240Z,15.77
2019-03-28T01:02:15.379Z,17.40
2019-03-28T01:04:41.388Z,17.97
2019-03-28T01:07:07.431Z,17.27
2019-03-28T01:09:33.451Z,17.60
2019-03-28T01:11:59.736Z,16.70
2019-03-28T01:14:25.752Z,17.37
2019-03-28T01:16:51.787Z,17.23
2019-03-28T01:19:17.800Z,17.10
2019-03-28T01:21:43.835Z,18.10
2019-03-28T01:24:09.851Z,18.43
2019-03-28T01:26:35.903Z,18.03
2019-03-28T01:29:01.913Z,17.13
2019-03-28T01:31:27.997Z,18.87
2019-03-28T01:33:54.003Z,18.03
2019-03-28T01:36:20.021Z,19.33
2019-03-28T01:38:46.055Z,18.10
2019-03-28T01:41:12.101Z,19.70
2019-03-28T01:43:38.180Z,19.20
2019-03-28T01:46:04.216Z,19.00
2019-03-28T01:48:30.252Z,17.93
2019-03-28T01:50:56.270Z,19.47
2019-03-28T01:53:22.328Z,20.13
2019-03-28T01:55:48.343Z,22.13
2019-03-28T01:58:14.448Z,19.33
2019-03-28T02:00:40.575Z,19.77
2019-03-28T02:03:06.619Z,18.97
2019-03-28T02:05:32.627Z,18.43
2019-03-28T02:07:58.666Z,18.23
2019-03-28T02:10:24.671Z,18.63
2019-03-28T02:12:50.716Z,18.47
2019-03-28T02:15:16.738Z,18.67
2019-03-28T02:17:42.763Z,19.47
2019-03-28T02:20:09.205Z,17.77
2019-03-28T02:22:35.325Z,19.23
2019-03-28T02:25:01.336Z,19.07
2019-03-28T02:27:27.387Z,18.77
2019-03-28T02:29:53.402Z,20.03
2019-03-28T02:32:19.536Z,18.80
2019-03-28T02:34:48.850Z,19.77
2019-03-28T02:37:13.467Z,18.03
2019-03-28T02:39:39.503Z,20.33
2019-03-28T02:42:05.519Z,19.47
2019-03-28T02:44:31.566Z,19.73
2019-03-28T02:46:57.588Z,20.33
2019-03-28T02:49:23.620Z,20.97
2019-03-28T02:51:49.645Z,20.50
2019-03-28T02:54:15.670Z,20.47
2019-03-28T02:56:41.877Z,21.17
2019-03-28T02:59:08.215Z,21.10
2019-03-28T03:01:34.240Z,19.93
2019-03-28T03:04:00.275Z,20.60
2019-03-28T03:06:26.295Z,22.70
2019-03-28T03:08:52.346Z,23.40
2019-03-28T03:11:18.350Z,20.67
2019-03-28T03:13:45.789Z,20.80
2019-03-28T03:16:12.132Z,22.20
2019-03-28T03:18:38.164Z,20.60
2019-03-28T03:21:04.186Z,22.43
2019-03-28T03:23:30.203Z,21.77
2019-03-28T03:25:56.228Z,23.50
2019-03-28T03:28:22.276Z,23.00
2019-03-28T03:30:48.279Z,24.27
2019-03-28T03:33:14.324Z,23.70
2019-03-28T03:35:40.358Z,28.05
2019-03-28T03:38:06.459Z,24.77
2019-03-28T03:40:32.507Z,22.67
2019-03-28T03:42:58.506Z,23.10
2019-03-28T03:45:24.765Z,24.67
2019-03-28T03:47:50.814Z,24.57
2019-03-28T03:50:25.926Z,23.17
2019-03-28T03:52:51.941Z,22.40
2019-03-28T03:55:17.992Z,21.40
2019-03-28T03:57:44.028Z,21.73
2019-03-28T04:00:12.366Z,22.47
2019-03-28T04:02:38.397Z,22.40
2019-03-28T04:05:05.505Z,22.30
2019-03-28T04:07:31.602Z,22.03
2019-03-28T04:09:57.651Z,25.20
2019-03-28T04:12:23.669Z,23.33
2019-03-28T04:14:49.726Z,23.87
2019-03-28T04:17:15.739Z,23.43
2019-03-28T04:19:41.768Z,23.83
2019-03-28T04:22:07.785Z,22.00
2019-03-28T04:24:33.821Z,22.53
2019-03-28T04:26:59.840Z,25.03
2019-03-28T04:29:25.884Z,23.80
2019-03-28T04:31:57.925Z,24.53
2019-03-28T04:34:23.960Z,24.17
2019-03-28T04:36:49.975Z,24.13
2019-03-28T04:39:16.629Z,23.87
2019-03-28T04:41:42.953Z,24.47
2019-03-28T04:44:08.992Z,24.23
2019-03-28T04:46:35.000Z,26.37
2019-03-28T04:49:01.019Z,24.47
2019-03-28T04:51:27.486Z,25.87
2019-03-28T04:53:56.231Z,26.43
2019-03-28T04:56:21.711Z,27.90
2019-03-28T04:58:53.538Z,26.20
2019-03-28T05:01:19.584Z,25.60
2019-03-28T05:03:45.655Z,26.77
2019-03-28T05:06:11.875Z,25.80
2019-03-28T05:08:37.996Z,26.07
2019-03-28T05:11:04.036Z,26.00
2019-03-28T05:13:30.063Z,25.23
2019-03-28T05:15:56.141Z,25.93
2019-03-28T05:18:22.220Z,26.87
2019-03-28T05:20:48.246Z,28.47
2019-03-28T05:23:14.393Z,26.40
2019-03-28T05:25:40.595Z,27.70
2019-03-28T05:28:06.619Z,26.73
2019-03-28T05:30:32.667Z,27.97
2019-03-28T05:32:58.673Z,27.20
2019-03-28T05:35:24.820Z,27.37
2019-03-28T05:37:50.867Z,28.43
2019-03-28T05:40:16.919Z,27.60
2019-03-28T05:42:42.930Z,27.27
2019-03-28T05:45:09.567Z,29.77
2019-03-28T05:47:35.693Z,27.63
2019-03-28T05:50:01.921Z,26.03
2019-03-28T05:52:27.953Z,28.93
2019-03-28T05:54:54.117Z,28.50
2019-03-28T05:57:20.147Z,29.63
2019-03-28T05:59:46.288Z,30.73
2019-03-28T06:02:12.427Z,32.23
2019-03-28T06:04:38.444Z,30.87
2019-03-28T06:07:04.478Z,30.47
2019-03-28T06:09:30.504Z,31.47
2019-03-28T06:11:56.537Z,31.67
2019-03-28T06:14:22.560Z,33.37
2019-03-28T06:16:48.595Z,32.47
2019-03-28T06:19:14.639Z,31.67
2019-03-28T06:21:40.680Z,32.17
2019-03-28T06:24:06.704Z,31.10
2019-03-28T06:26:32.736Z,31.70
2019-03-28T06:28:58.755Z,31.97
2019-03-28T06:31:24.787Z,40.78
2019-03-28T06:33:50.811Z,35.97
2019-03-28T06:36:16.853Z,31.83
2019-03-28T06:38:42.943Z,33.27
2019-03-28T06:41:09.007Z,33.87
2019-03-28T06:43:35.027Z,31.87
2019-03-28T06:46:01.872Z,31.93
2019-03-28T06:48:27.909Z,31.23
2019-03-28T06:50:53.948Z,32.87
2019-03-28T06:53:19.974Z,33.67
2019-03-28T06:55:46.019Z,34.10
2019-03-28T06:58:12.039Z,33.10
2019-03-28T07:00:38.118Z,33.00
2019-03-28T07:03:04.126Z,33.73
2019-03-28T07:05:30.195Z,34.37
2019-03-28T07:07:56.229Z,32.97
2019-03-28T07:10:22.347Z,33.37
2019-03-28T07:12:48.427Z,32.97
2019-03-28T07:15:14.635Z,35.10
2019-03-28T07:17:40.695Z,34.23
2019-03-28T07:20:09.142Z,35.20
2019-03-28T07:22:35.127Z,35.67
2019-03-28T07:25:01.160Z,34.93
2019-03-28T07:27:27.199Z,34.83
2019-03-28T07:29:53.339Z,33.40
2019-03-28T07:32:19.364Z,33.87
2019-03-28T07:34:45.375Z,33.20
2019-03-28T07:37:11.417Z,34.67
2019-03-28T07:39:37.428Z,32.60
2019-03-28T07:42:03.459Z,36.53
2019-03-28T07:44:29.476Z,35.33
2019-03-28T07:46:55.545Z,34.53
2019-03-28T07:49:21.551Z,36.87
2019-03-28T07:51:47.598Z,31.87
2019-03-28T07:54:13.626Z,33.50
2019-03-28T07:56:39.656Z,35.63
2019-03-28T07:59:05.707Z,33.07
2019-03-28T08:01:31.744Z,35.03
2019-03-28T08:03:57.769Z,28.97
2019-03-28T08:06:23.804Z,31.53
2019-03-28T08:08:49.840Z,29.27
2019-03-28T08:11:15.899Z,28.17
2019-03-28T08:13:41.987Z,27.53
2019-03-28T08:16:08.015Z,28.63
2019-03-28T08:18:34.065Z,27.43
2019-03-28T08:21:00.071Z,26.37
2019-03-28T08:23:26.101Z,27.10
2019-03-28T08:25:52.199Z,28.13
2019-03-28T08:28:18.240Z,27.93
2019-03-28T08:30:45.460Z,27.40
2019-03-28T08:33:11.695Z,26.10
2019-03-28T08:35:37.722Z,25.40
2019-03-28T08:38:05.159Z,24.63
2019-03-28T08:40:39.680Z,23.23
2019-03-28T08:43:05.203Z,25.03
2019-03-28T08:45:31.418Z,23.37
2019-03-28T08:47:57.572Z,26.23
2019-03-28T08:50:23.598Z,22.57
2019-03-28T08:52:49.619Z,22.90
2019-03-28T08:55:15.665Z,22.60
2019-03-28T08:57:41.719Z,22.43
2019-03-28T09:00:10.051Z,23.10
2019-03-28T09:02:36.099Z,20.50
2019-03-28T09:05:03.500Z,18.67
2019-03-28T09:07:29.588Z,18.80
2019-03-28T09:09:55.603Z,18.63
2019-03-28T09:12:21.651Z,17.90
2019-03-28T09:14:47.695Z,16.60
2019-03-28T09:17:13.716Z,18.03
2019-03-28T09:19:40.428Z,16.33
2019-03-28T09:22:06.439Z,13.67
2019-03-28T09:24:32.476Z,13.23
2019-03-28T09:26:58.500Z,12.30
2019-03-28T09:29:24.534Z,12.93
2019-03-28T09:31:50.650Z,12.53
2019-03-28T09:34:16.686Z,10.57
2019-03-28T09:36:42.716Z,12.37
2019-03-28T09:39:08.834Z,11.00
2019-03-28T09:41:34.848Z,11.77
2019-03-28T09:44:01.921Z,11.50
2019-03-28T09:46:28.067Z,10.23
2019-03-28T09:48:54.124Z,9.87
2019-03-28T09:51:20.235Z,10.90
2019-03-28T09:53:46.271Z,12.13
2019-03-28T09:56:12.307Z,10.60
2019-03-28T09:58:38.335Z,8.30
2019-03-28T10:01:04.361Z,9.93
2019-03-28T10:03:30.450Z,9.20
2019-03-28T10:05:56.573Z,10.40
2019-03-28T10:08:22.620Z,10.60
2019-03-28T10:10:48.921Z,9.23
2019-03-28T10:13:14.984Z,8.90
2019-03-28T10:15:41.123Z,10.17
2019-03-28T10:18:07.166Z,9.03
2019-03-28T10:20:33.247Z,7.80
2019-03-28T10:22:59.276Z,8.27
2019-03-28T10:25:25.351Z,8.27
2019-03-28T10:27:51.367Z,8.90
2019-03-28T10:30:21.206Z,7.30
2019-03-28T10:32:47.231Z,7.50
2019-03-28T10:35:17.110Z,7.43
2019-03-28T10:37:43.128Z,7.50
2019-03-28T10:40:09.269Z,6.83
2019-03-28T10:42:35.293Z,6.97
2019-03-28T10:45:01.987Z,6.50
2019-03-28T10:47:27.991Z,7.40
2019-03-28T10:49:54.037Z,7.23
2019-03-28T10:52:20.044Z,7.17
2019-03-28T10:54:46.084Z,6.90
2019-03-28T10:57:13.795Z,6.10
2019-03-28T10:59:40.095Z,6.30
2019-03-28T11:02:06.229Z,7.37
2019-03-28T11:04:32.274Z,8.43
2019-03-28T11:06:58.592Z,7.90
2019-03-28T11:09:25.027Z,6.73
2019-03-28T11:11:51.040Z,7.50
2019-03-28T11:14:17.070Z,7.80
2019-03-28T11:16:43.091Z,6.20
2019-03-28T11:19:09.143Z,6.33
2019-03-28T11:21:35.182Z,5.90
2019-03-28T11:24:02.006Z,8.37
2019-03-28T11:26:28.083Z,7.97
2019-03-28T11:28:54.124Z,7.90
2019-03-28T11:31:20.235Z,8.00
2019-03-28T11:33:46.283Z,7.20
2019-03-28T11:36:12.384Z,7.33
2019-03-28T11:38:38.459Z,7.10
2019-03-28T11:41:04.480Z,6.60
2019-03-28T11:43:30.492Z,7.07
2019-03-28T11:45:56.531Z,6.57
2019-03-28T11:48:22.552Z,5.03
2019-03-28T11:50:48.586Z,5.77
2019-03-28T11:53:14.601Z,5.90
2019-03-28T11:55:40.628Z,5.97
2019-03-28T11:58:06.680Z,7.23
2019-03-28T12:00:32.728Z,7.33
2019-03-28T12:02:58.753Z,8.67
2019-03-28T12:05:24.775Z,6.83
2019-03-28T12:07:50.801Z,5.67
2019-03-28T12:10:16.935Z,6.40
2019-03-28T12:12:45.996Z,6.43
2019-03-28T12:15:12.535Z,7.90
2019-03-28T12:17:38.563Z,8.07
2019-03-28T12:20:08.097Z,8.80
2019-03-28T12:22:34.245Z,10.33
2019-03-28T12:25:01.156Z,9.60
2019-03-28T12:27:27.168Z,9.33
2019-03-28T12:29:53.248Z,8.60
2019-03-28T12:32:19.255Z,7.97
2019-03-28T12:34:45.667Z,10.17
2019-03-28T12:37:12.051Z,10.13
2019-03-28T12:39:38.500Z,9.73
2019-03-28T12:42:04.878Z,9.53
2019-03-28T12:44:31.288Z,8.40
2019-03-28T12:46:57.719Z,8.17
2019-03-28T12:49:24.113Z,7.87
2019-03-28T12:51:50.499Z,7.20
2019-03-28T12:54:16.899Z,6.63
2019-03-28T12:56:43.287Z,5.10
2019-03-28T12:59:09.670Z,5.20
2019-03-28T13:01:36.076Z,6.43
2019-03-28T13:04:02.463Z,5.60
2019-03-28T13:06:28.884Z,5.23
2019-03-28T13:08:55.295Z,5.30
2019-03-28T13:11:21.695Z,5.03
2019-03-28T13:13:48.080Z,5.80
2019-03-28T13:16:14.499Z,6.30
2019-03-28T13:18:40.931Z,6.75
2019-03-28T13:21:13.217Z,7.13
2019-03-28T13:23:35.811Z,7.33
2019-03-28T13:26:02.227Z,7.33
2019-03-28T13:28:28.774Z,7.30
2019-03-28T13:30:55.380Z,6.93
2019-03-28T13:33:21.753Z,5.33
2019-03-28T13:35:48.155Z,5.40
2019-03-28T13:38:14.564Z,5.77
2019-03-28T13:40:40.970Z,6.23
2019-03-28T13:43:07.359Z,6.57
2019-03-28T13:45:33.878Z,6.73
2019-03-28T13:48:00.275Z,6.37
2019-03-28T13:50:26.680Z,6.37
2019-03-28T13:52:53.063Z,5.80
2019-03-28T13:55:19.543Z,6.10
2019-03-28T13:57:45.931Z,6.00
2019-03-28T14:00:12.563Z,5.47
2019-03-28T14:02:38.961Z,5.70
2019-03-28T14:05:06.379Z,5.63
2019-03-28T14:07:32.806Z,6.20
2019-03-28T14:09:59.271Z,6.47
2019-03-28T14:12:25.651Z,4.87
2019-03-28T14:14:52.123Z,5.30
2019-03-28T14:17:19.605Z,5.33
2019-03-28T14:19:46.115Z,5.40
2019-03-28T14:22:12.543Z,5.40
2019-03-28T14:24:38.965Z,5.67
2019-03-28T14:27:05.353Z,5.10
2019-03-28T14:29:31.775Z,5.17
2019-03-28T14:31:59.921Z,4.83
2019-03-28T14:34:26.643Z,4.87
2019-03-28T14:36:53.019Z,4.53
2019-03-28T14:39:19.419Z,5.50
2019-03-28T14:41:46.455Z,5.37
2019-03-28T14:44:13.123Z,4.70
2019-03-28T14:46:39.515Z,5.30
2019-03-28T14:49:05.981Z,5.60
2019-03-28T14:51:32.514Z,5.00
2019-03-28T14:53:58.980Z,5.60
2019-03-28T14:56:25.844Z,3.90
2019-03-28T14:58:53.063Z,3.30
2019-03-28T15:01:19.451Z,3.10
2019-03-28T15:03:45.855Z,3.17
2019-03-28T15:06:12.287Z,3.00
2019-03-28T15:08:38.723Z,3.50
2019-03-28T15:11:05.257Z,3.23
2019-03-28T15:13:31.648Z,4.07
2019-03-28T15:15:58.031Z,3.70
2019-03-28T15:18:24.419Z,3.90
2019-03-28T15:20:50.859Z,2.83
2019-03-28T15:23:17.247Z,2.90
2019-03-28T15:25:43.740Z,3.70
2019-03-28T15:28:10.125Z,3.30
2019-03-28T15:30:37.908Z,3.60
2019-03-28T15:33:04.319Z,3.60
2019-03-28T15:35:30.739Z,4.03
2019-03-28T15:37:57.160Z,4.07
2019-03-28T15:40:23.570Z,3.47
2019-03-28T15:42:49.974Z,3.97
2019-03-28T15:45:16.377Z,5.10
2019-03-28T15:47:43.576Z,4.60
2019-03-28T15:50:09.960Z,5.20
2019-03-28T15:52:35.998Z,4.20
2019-03-28T15:55:03.343Z,4.80
2019-03-28T15:57:29.407Z,4.33
2019-03-28T15:59:55.446Z,5.03
2019-03-28T16:02:21.464Z,4.97
2019-03-28T16:04:49.432Z,5.30
2019-03-28T16:07:15.491Z,5.47
2019-03-28T16:09:41.547Z,5.67
2019-03-28T16:12:07.588Z,5.43
2019-03-28T16:14:33.705Z,4.57
2019-03-28T16:16:59.911Z,3.93
2019-03-28T16:19:25.963Z,4.10
2019-03-28T16:21:52.003Z,4.57
2019-03-28T16:24:19.145Z,4.10
2019-03-28T16:26:45.375Z,4.87
2019-03-28T16:29:11.395Z,4.10
2019-03-28T16:31:37.465Z,3.70
2019-03-28T16:34:07.058Z,3.50
2019-03-28T16:36:31.645Z,3.90
2019-03-28T16:38:57.668Z,3.77
2019-03-28T16:41:24.109Z,3.10
2019-03-28T16:43:50.508Z,3.60
2019-03-28T16:46:16.623Z,3.00
2019-03-28T16:48:42.643Z,3.50
2019-03-28T16:51:10.580Z,3.30
2019-03-28T16:53:36.704Z,2.73
2019-03-28T16:56:02.787Z,2.97
2019-03-28T16:58:28.803Z,3.00
2019-03-28T17:00:54.848Z,2.60
2019-03-28T17:03:20.863Z,2.95
2019-03-28T17:05:47.241Z,2.43
2019-03-28T17:08:14.486Z,2.90
2019-03-28T17:10:46.064Z,2.47
2019-03-28T17:13:14.906Z,2.10
2019-03-28T17:15:40.871Z,2.20
2019-03-28T17:18:06.876Z,2.50
2019-03-28T17:20:32.908Z,2.63
2019-03-28T17:22:58.940Z,4.10
2019-03-28T17:25:24.981Z,2.40
2019-03-28T17:27:51.035Z,2.40
2019-03-28T17:30:17.074Z,2.83
2019-03-28T17:32:43.106Z,3.50
2019-03-28T17:35:12.577Z,1.80
2019-03-28T17:37:37.183Z,2.73
2019-03-28T17:40:05.311Z,2.90
2019-03-28T17:42:31.402Z,2.80
2019-03-28T17:44:57.479Z,2.70
2019-03-28T17:47:23.530Z,2.33
2019-03-28T17:49:49.639Z,2.77
2019-03-28T17:52:15.804Z,2.60
2019-03-28T17:54:43.244Z,3.23
2019-03-28T17:57:09.269Z,2.40
2019-03-28T17:59:35.315Z,2.40
2019-03-28T18:02:01.952Z,2.90
2019-03-28T18:04:27.967Z,2.83
2019-03-28T18:06:56.923Z,2.43
2019-03-28T18:09:23.190Z,3.13
2019-03-28T18:11:49.204Z,2.80
2019-03-28T18:14:15.226Z,3.17
2019-03-28T18:16:41.267Z,3.10
2019-03-28T18:19:07.289Z,2.70
2019-03-28T18:21:34.063Z,3.03
2019-03-28T18:24:00.085Z,4.50
2019-03-28T18:26:26.121Z,29.57
2019-03-28T18:28:52.216Z,5.40
2019-03-28T18:31:31.233Z,4.93
2019-03-28T18:33:58.793Z,5.53
2019-03-28T18:36:26.881Z,5.87
2019-03-28T18:38:52.992Z,6.30
2019-03-28T18:41:19.080Z,5.83
2019-03-28T18:43:47.732Z,6.50
2019-03-28T18:46:14.898Z,7.30
2019-03-28T18:48:41.125Z,6.50
2019-03-28T18:51:07.207Z,6.57
2019-03-28T18:53:33.295Z,6.80
2019-03-28T18:55:59.343Z,7.37
2019-03-28T18:58:25.420Z,7.47
2019-03-28T19:00:51.620Z,6.43
2019-03-28T19:03:17.755Z,6.50
2019-03-28T19:05:43.788Z,7.00
2019-03-28T19:08:09.852Z,6.30
2019-03-28T19:10:36.017Z,6.63
2019-03-28T19:13:04.702Z,8.40
2019-03-28T19:15:30.195Z,7.30
2019-03-28T19:17:56.370Z,7.50
2019-03-28T19:20:22.470Z,8.23
2019-03-28T19:22:50.221Z,12.20
2019-03-28T19:25:16.620Z,11.43
2019-03-28T19:27:42.908Z,14.40
2019-03-28T19:30:10.031Z,11.17
2019-03-28T19:32:36.101Z,10.78
2019-03-28T19:35:04.429Z,7.70
2019-03-28T19:37:30.648Z,7.83
2019-03-28T19:39:57.540Z,6.90
2019-03-28T19:42:23.676Z,19.80
2019-03-28T19:44:49.808Z,8.17
2019-03-28T19:47:20.410Z,7.65
2019-03-28T19:49:49.916Z,8.27
2019-03-28T19:52:18.975Z,7.27
2019-03-28T19:54:45.014Z,8.40
2019-03-28T19:57:11.048Z,7.93
2019-03-28T19:59:37.152Z,8.33
2019-03-28T20:02:06.132Z,7.23
2019-03-28T20:04:32.347Z,6.83
2019-03-28T20:06:58.428Z,6.90
2019-03-28T20:09:24.458Z,7.10
2019-03-28T20:11:50.616Z,6.50
2019-03-28T20:14:16.949Z,7.10
2019-03-28T20:16:43.216Z,6.20
2019-03-28T20:19:09.499Z,6.47
2019-03-28T20:21:35.609Z,6.30
2019-03-28T20:24:01.750Z,5.77
2019-03-28T20:26:27.782Z,5.77
2019-03-28T20:28:53.820Z,6.30
2019-03-28T20:31:19.939Z,5.57
2019-03-28T20:33:46.104Z,6.87
2019-03-28T20:36:36.205Z,7.57
2019-03-28T20:38:40.181Z,6.27
2019-03-28T20:41:06.306Z,6.00
2019-03-28T20:43:32.365Z,6.13
2019-03-28T20:45:58.387Z,5.90
2019-03-28T20:48:24.463Z,5.63
2019-03-28T20:50:50.500Z,6.10
2019-03-28T20:53:16.545Z,5.90
2019-03-28T20:55:42.685Z,6.37
2019-03-28T20:58:08.716Z,5.60
2019-03-28T21:00:39.986Z,5.20
2019-03-28T21:03:06.132Z,6.10
2019-03-28T21:05:32.259Z,4.90
2019-03-28T21:07:58.286Z,4.90
2019-03-28T21:10:24.737Z,5.00
2019-03-28T21:12:52.280Z,5.23
2019-03-28T21:15:18.317Z,5.97
2019-03-28T21:17:45.276Z,5.53
2019-03-28T21:20:11.361Z,5.90
2019-03-28T21:22:37.396Z,5.73
2019-03-28T21:25:05.333Z,5.43
2019-03-28T21:27:31.375Z,5.53
2019-03-28T21:29:57.636Z,5.50
2019-03-28T21:32:23.874Z,6.07
2019-03-28T21:34:49.904Z,5.20
2019-03-28T21:37:15.949Z,6.40
2019-03-28T21:39:41.970Z,5.30
2019-03-28T21:42:08.631Z,5.73
2019-03-28T21:44:34.792Z,5.70
2019-03-28T21:47:02.110Z,5.63
2019-03-28T21:49:28.136Z,5.53
2019-03-28T21:51:54.200Z,5.50
2019-03-28T21:54:20.211Z,5.57
2019-03-28T21:56:46.261Z,5.10
2019-03-28T21:59:12.336Z,4.80
2019-03-28T22:01:38.361Z,5.73
2019-03-28T22:04:04.511Z,5.80
2019-03-28T22:06:42.344Z,5.97
2019-03-28T22:08:58.896Z,5.63
2019-03-28T22:11:25.204Z,6.03
2019-03-28T22:13:51.362Z,6.23
2019-03-28T22:16:17.392Z,5.77
2019-03-28T22:18:43.422Z,6.27
2019-03-28T22:21:10.050Z,5.77
2019-03-28T22:23:36.212Z,6.10
2019-03-28T22:26:02.228Z,6.07
2019-03-28T22:28:28.254Z,6.23
2019-03-28T22:30:54.293Z,5.87
2019-03-28T22:33:20.351Z,5.83
2019-03-28T22:35:46.467Z,6.03
2019-03-28T22:38:12.523Z,5.93
2019-03-28T22:40:38.575Z,5.73
2019-03-28T22:43:04.692Z,5.60
2019-03-28T22:45:30.726Z,5.53
2019-03-28T22:48:09.732Z,6.13
2019-03-28T22:50:24.683Z,6.07
2019-03-28T22:52:50.722Z,6.13
2019-03-28T22:55:16.767Z,6.23
2019-03-28T22:57:42.896Z,5.57
2019-03-28T23:00:11.731Z,5.60
2019-03-28T23:02:38.063Z,5.80
2019-03-28T23:05:07.175Z,5.57
2019-03-28T23:07:33.271Z,6.30
2019-03-28T23:09:59.289Z,6.00
2019-03-28T23:12:25.319Z,6.78
2019-03-28T23:14:51.342Z,5.97
2019-03-28T23:17:17.384Z,6.33
2019-03-28T23:19:43.501Z,6.10
2019-03-28T23:22:09.508Z,5.73
2019-03-28T23:24:38.874Z,6.50
2019-03-28T23:27:03.536Z,6.23
2019-03-28T23:29:29.587Z,6.37
2019-03-28T23:31:55.616Z,6.17
2019-03-28T23:34:22.235Z,6.40
2019-03-28T23:36:48.958Z,7.37
2019-03-28T23:39:14.997Z,6.87
2019-03-28T23:41:41.018Z,6.87
2019-03-28T23:44:07.143Z,6.10
2019-03-28T23:46:33.163Z,7.50
2019-03-28T23:48:59.196Z,8.20
2019-03-28T23:51:25.219Z,7.27
2019-03-28T23:53:51.265Z,6.90
2019-03-28T23:56:17.272Z,7.33
2019-03-28T23:58:43.307Z,7.00
